Crown Princess — ZCDM6 — position and weather

sailwx.info

Track history (hours):
 
Tides and Currents Weather Stations Pressure Air Temp Water Temp Dewpoint Dewpoint Depression Visibility Wind Speed Wind Dir Waves Ship Positions

Crown Princess

Last reported at 2018-Apr-19 09:58 UTC. Time now 2018-Apr-19 10:26 UTC.
Position N 43°33' E 010°18'.

Type: Passenger vessel. MMSI: 310500000.

Date/timePositionNaut miles runAvg speedWind from/ knotsBaromVisibWave heightAir tempDewpointWater temp
2018-Apr-19 09:58N 43°33' E 010°18'0 0.0
2018-Apr-19 09:28N 43°33' E 010°18'0 0.0
2018-Apr-19 08:58N 43°33' E 010°18'0 0.0
2018-Apr-19 08:28N 43°33' E 010°18'0 0.0
2018-Apr-19 07:58N 43°33' E 010°18'0 0.0
2018-Apr-19 07:28N 43°33' E 010°18'0 0.0
2018-Apr-19 06:58N 43°33' E 010°18'0 0.0
2018-Apr-19 06:28N 43°33' E 010°18'0 0.0
2018-Apr-19 05:58N 43°33' E 010°18'0 0.0
2018-Apr-19 05:28N 43°33' E 010°18'0 0.0
2018-Apr-19 05:00N 43°33' E 010°18'2 3.4
2018-Apr-19 04:30N 43°32' E 010°16'4 8.1
2018-Apr-19 04:00N 43°29' E 010°12'1121.4
2018-Apr-19 03:30N 43°22' E 010°02'1121.3
2018-Apr-19 03:00N 43°17' E 009°48'1122.1
2018-Apr-19 02:30N 43°15' E 009°33'1121.8
2018-Apr-19 02:00N 43°14' E 009°18'1122.1
2018-Apr-19 01:30N 43°11' E 009°04'1121.9
2018-Apr-19 01:00N 43°08' E 008°49'1121.8
2018-Apr-19 00:30N 43°05' E 008°35'1521.2
2018-Apr-18 23:49N 43°01' E 008°15'821.3
2018-Apr-18 23:27N 42°59' E 008°05'1821.7
2018-Apr-18 22:38N 42°52' E 007°43'321.8
2018-Apr-18 22:29N 42°51' E 007°39'1121.9
2018-Apr-18 21:59N 42°46' E 007°25'7 7.0
2018-Apr-18 21:00N 42°42' E 007°18'9221.6 040 / 151026.010.8 17.511.615.1
2018-Apr-18 16:43N 43°06' E 005°16'519.7
2018-Apr-18 16:28N 43°10' E 005°12'816.8
2018-Apr-18 16:00N 43°17' E 005°11'7 1.5
2018-Apr-18 11:21N 43°21' E 005°20'0 0.0
2018-Apr-18 11:00N 43°21' E 005°20'0 0.0
2018-Apr-18 10:30N 43°21' E 005°20'0 0.0
2018-Apr-18 09:34N 43°21' E 005°20'0 0.0
2018-Apr-18 09:22N 43°21' E 005°20'0 0.0
2018-Apr-18 08:36N 43°21' E 005°20'0 0.0
2018-Apr-18 08:16N 43°21' E 005°20'0 0.0
2018-Apr-18 07:06N 43°21' E 005°20'0 0.0
2018-Apr-18 07:00N 43°21' E 005°20'0 0.0
2018-Apr-18 06:30N 43°21' E 005°20'0 0.0
2018-Apr-18 06:00N 43°21' E 005°20'1 2.2
2018-Apr-18 05:29N 43°21' E 005°18'511.1
2018-Apr-18 05:00N 43°18' E 005°13'1019.5
2018-Apr-18 04:30N 43°09' E 005°06'1020.5
2018-Apr-18 04:00N 43°02' E 004°57'1020.3
2018-Apr-18 03:30N 42°54' E 004°48'1219.9
2018-Apr-18 02:53N 42°45' E 004°37'11415.6
2018-Apr-17 19:33N 41°29' E 002°42'120.6
2018-Apr-17 19:30N 41°28' E 002°41'1019.3
2018-Apr-17 19:00N 41°22' E 002°30'1318.6
2018-Apr-17 18:17N 41°16' E 002°15'413.1
2018-Apr-17 17:59N 41°18' E 002°10'3 0.9
2018-Apr-17 14:21N 41°21' E 002°10'0 0.0
2018-Apr-17 12:21N 41°21' E 002°10'0 0.0
2018-Apr-17 11:57N 41°21' E 002°10'0 0.0
2018-Apr-17 11:27N 41°21' E 002°10'0 0.0
2018-Apr-17 10:57N 41°21' E 002°10'0 0.0
2018-Apr-17 10:27N 41°21' E 002°10'0 0.0
2018-Apr-17 09:57N 41°21' E 002°10'0 0.0
2018-Apr-17 09:27N 41°21' E 002°10'0 0.0
2018-Apr-17 08:57N 41°21' E 002°10'0 0.0
2018-Apr-17 08:27N 41°21' E 002°10'0 0.0
2018-Apr-17 07:57N 41°21' E 002°10'0 0.0
2018-Apr-17 07:27N 41°21' E 002°10'0 0.0
2018-Apr-17 06:57N 41°21' E 002°10'0 0.0
2018-Apr-17 06:27N 41°21' E 002°10'0 0.0
2018-Apr-17 05:57N 41°21' E 002°10'0 0.0
2018-Apr-17 05:27N 41°21' E 002°10'0 0.0
2018-Apr-17 04:57N 41°21' E 002°10'0 0.0
2018-Apr-17 04:27N 41°21' E 002°10'0 0.0
2018-Apr-17 03:57N 41°21' E 002°10'0 0.0
2018-Apr-17 03:27N 41°21' E 002°10'0 0.0
2018-Apr-17 02:57N 41°21' E 002°10'0 0.0
2018-Apr-17 02:27N 41°21' E 002°10'0 0.0
2018-Apr-17 01:57N 41°21' E 002°10'0 0.0
2018-Apr-17 01:27N 41°21' E 002°10'0 0.0
2018-Apr-17 00:57N 41°21' E 002°10'0 0.0
2018-Apr-17 00:27N 41°21' E 002°10'0 0.0
2018-Apr-16 23:57N 41°21' E 002°10'0 0.0
2018-Apr-16 23:27N 41°21' E 002°10'0 0.0
2018-Apr-16 22:57N 41°21' E 002°10'0 0.0
2018-Apr-16 22:27N 41°21' E 002°10'0 0.0
2018-Apr-16 21:57N 41°21' E 002°10'0 0.0
2018-Apr-16 21:27N 41°21' E 002°10'0 0.0
2018-Apr-16 20:57N 41°21' E 002°10'0 0.0
2018-Apr-16 20:27N 41°21' E 002°10'0 0.0
2018-Apr-16 19:57N 41°21' E 002°10'0 0.0
2018-Apr-16 19:27N 41°21' E 002°10'0 0.0
2018-Apr-16 18:57N 41°21' E 002°10'0 0.0
2018-Apr-16 18:27N 41°21' E 002°10'0 0.0
2018-Apr-16 17:57N 41°21' E 002°10'0 0.0
2018-Apr-16 17:27N 41°21' E 002°10'0 0.0
2018-Apr-16 16:57N 41°21' E 002°10'0 0.0
2018-Apr-16 16:27N 41°21' E 002°10'0 0.0
2018-Apr-16 15:57N 41°21' E 002°10'0 0.0
2018-Apr-16 15:27N 41°21' E 002°10'0 0.0
2018-Apr-16 14:57N 41°21' E 002°10'0 0.0
2018-Apr-16 14:27N 41°21' E 002°10'0 0.0
2018-Apr-16 13:57N 41°21' E 002°10'0 0.0
2018-Apr-16 13:27N 41°21' E 002°10'0 0.0
2018-Apr-16 12:57N 41°21' E 002°10'0 0.0
2018-Apr-16 12:27N 41°21' E 002°10'0 0.0
2018-Apr-16 11:57N 41°21' E 002°10'0 0.0
2018-Apr-16 11:27N 41°21' E 002°10'0 0.0
2018-Apr-16 10:57N 41°21' E 002°10'0 0.0
2018-Apr-16 10:27N 41°21' E 002°10'0 0.0
2018-Apr-16 09:57N 41°21' E 002°10'0 0.0
2018-Apr-16 09:27N 41°21' E 002°10'0 0.0
2018-Apr-16 08:57N 41°21' E 002°10'0 0.0
2018-Apr-16 08:27N 41°21' E 002°10'0 0.0
2018-Apr-16 07:57N 41°21' E 002°10'0 0.0
2018-Apr-16 07:27N 41°21' E 002°10'0 0.1
2018-Apr-16 07:01N 41°21' E 002°10'2 3.3
2018-Apr-16 06:30N 41°20' E 002°10'4 8.5
2018-Apr-16 06:00N 41°16' E 002°12'713.6
2018-Apr-16 05:30N 41°09' E 002°13'712.9
2018-Apr-16 05:00N 41°02' E 002°12'713.4
2018-Apr-16 04:29N 40°55' E 002°10'813.6
2018-Apr-16 03:54N 40°48' E 002°08'913.5
2018-Apr-16 03:14N 40°39' E 002°06'7111.9
2018-Apr-15 21:18N 39°29' E 002°16'517.7
2018-Apr-15 21:01N 39°25' E 002°21'815.4
2018-Apr-15 20:30N 39°23' E 002°30'611.7
2018-Apr-15 20:01N 39°27' E 002°35'713.2
2018-Apr-15 19:30N 39°33' E 002°39'1 1.0
2018-Apr-15 19:00N 39°33' E 002°38'0 0.0
2018-Apr-15 18:30N 39°33' E 002°38'0 0.0
2018-Apr-15 18:00N 39°33' E 002°38'0 0.0
2018-Apr-15 17:30N 39°33' E 002°38'0 0.0
2018-Apr-15 17:00N 39°33' E 002°38'0 0.0
2018-Apr-15 16:30N 39°33' E 002°38'0 0.0
2018-Apr-15 16:00N 39°33' E 002°38'0 0.0
2018-Apr-15 15:30N 39°33' E 002°38'0 0.0
2018-Apr-15 15:00N 39°33' E 002°38'0 0.0
2018-Apr-15 14:30N 39°33' E 002°38'0 0.0
2018-Apr-15 14:00N 39°33' E 002°38'0 0.0
2018-Apr-15 13:30N 39°33' E 002°38'0 0.0
2018-Apr-15 13:00N 39°33' E 002°38'0 0.0
2018-Apr-15 12:30N 39°33' E 002°38'0 0.0
2018-Apr-15 12:00N 39°33' E 002°38'0 0.0
2018-Apr-15 11:30N 39°33' E 002°38'0 0.0
2018-Apr-15 11:00N 39°33' E 002°38'0 0.0
2018-Apr-15 10:30N 39°33' E 002°38'0 0.0
2018-Apr-15 10:00N 39°33' E 002°38'0 0.0
2018-Apr-15 09:29N 39°33' E 002°38'0 0.0
2018-Apr-15 09:00N 39°33' E 002°38'0 0.0
2018-Apr-15 08:29N 39°33' E 002°38'0 0.0
2018-Apr-15 08:00N 39°33' E 002°38'0 0.0
2018-Apr-15 07:30N 39°33' E 002°38'0 0.0
2018-Apr-15 07:00N 39°33' E 002°38'0 0.0
2018-Apr-15 06:30N 39°33' E 002°38'0 0.0
2018-Apr-15 06:00N 39°33' E 002°38'0 0.2
2018-Apr-15 05:30N 39°33' E 002°38'3 5.3
2018-Apr-15 05:00N 39°31' E 002°38'612.4
2018-Apr-15 04:30N 39°26' E 002°33'816.1
2018-Apr-15 04:00N 39°23' E 002°24'816.9
2018-Apr-15 03:30N 39°21' E 002°13'5217.2
2018-Apr-15 00:30N 39°05' E 001°09'8617.3
2018-Apr-14 19:33N 38°03' W 000°05'117.8
2018-Apr-14 19:30N 38°02' W 000°06'917.5
2018-Apr-14 19:00N 37°55' W 000°12'816.7
2018-Apr-14 18:30N 37°48' W 000°18'817.0
2018-Apr-14 18:00N 37°41' W 000°24'917.7
2018-Apr-14 17:30N 37°34' W 000°30'817.3
2018-Apr-14 17:00N 37°30' W 000°40'917.8
2018-Apr-14 16:30N 37°31' W 000°51'714.2
2018-Apr-14 16:00N 37°34' W 000°60'2 0.6
2018-Apr-14 13:03N 37°36' W 000°59'0 0.0
2018-Apr-14 12:51N 37°36' W 000°59'0 0.0
2018-Apr-14 12:09N 37°36' W 000°59'0 0.0
2018-Apr-14 10:33N 37°36' W 000°59'0 0.0
2018-Apr-14 10:03N 37°36' W 000°59'0 0.0
2018-Apr-14 09:57N 37°36' W 000°59'0 0.0
2018-Apr-14 09:27N 37°36' W 000°59'0 0.0
2018-Apr-14 08:09N 37°36' W 000°59'0 0.0
2018-Apr-14 07:39N 37°36' W 000°59'0 0.0
2018-Apr-14 05:49N 37°36' W 000°59'1 3.5
2018-Apr-14 05:30N 37°35' W 000°59'5 9.8
2018-Apr-14 04:59N 37°30' W 001°01'1119.1
2018-Apr-14 04:25N 37°21' W 001°08'20417.5
2018-Apr-13 16:46N 36°05' W 005°05'519.7
2018-Apr-13 16:30N 36°05' W 005°12'917.7
2018-Apr-13 16:00N 36°06' W 005°22'3 5.8
2018-Apr-13 15:30N 36°09' W 005°22'0 0.0
2018-Apr-13 14:58N 36°09' W 005°22'0 0.0
2018-Apr-13 14:19N 36°09' W 005°22'0 0.0
2018-Apr-13 13:55N 36°09' W 005°22'0 0.0
2018-Apr-13 13:28N 36°09' W 005°22'0 0.0
2018-Apr-13 12:58N 36°09' W 005°22'0 0.0
2018-Apr-13 12:28N 36°09' W 005°22'0 0.0
2018-Apr-13 11:58N 36°09' W 005°22'0 0.0
2018-Apr-13 11:10N 36°09' W 005°22'0 0.0
2018-Apr-13 10:58N 36°09' W 005°22'0 0.0
2018-Apr-13 10:22N 36°09' W 005°22'0 0.0
2018-Apr-13 09:58N 36°09' W 005°22'0 0.0
2018-Apr-13 09:28N 36°09' W 005°22'0 0.0
2018-Apr-13 08:16N 36°09' W 005°22'0 0.0
2018-Apr-13 07:58N 36°09' W 005°22'0 0.0
2018-Apr-13 07:28N 36°09' W 005°22'0 0.0
2018-Apr-13 06:58N 36°09' W 005°22'0 0.0
2018-Apr-13 06:28N 36°09' W 005°22'0 0.0
2018-Apr-13 05:34N 36°09' W 005°22'0 0.0
2018-Apr-13 05:29N 36°09' W 005°22'0 0.0
2018-Apr-13 04:58N 36°09' W 005°22'0 0.6
2018-Apr-13 04:30N 36°09' W 005°22'3 6.2
2018-Apr-13 04:01N 36°06' W 005°21'4 8.4
2018-Apr-13 03:30N 36°03' W 005°18'815.9
2018-Apr-13 03:00N 35°58' W 005°26'9519.0
2018-Apr-12 22:00N 35°30' W 007°18'22618.8 260 / 251008.210.8 14.5 9.116.6
2018-Apr-12 10:00N 34°12' W 011°36'39711.0 230 / 261011.710.8 19.013.317.3
2018-Apr-10 22:00N 32°36' W 019°18'20718.8 340 / 461024.210.8 19.013.319.3
2018-Apr-10 11:00N 32°42' W 023°24'27820.3 350 / 321029.510.8 18.013.919.7
2018-Apr-09 21:18N 32°47' W 028°54'4019.3
2018-Apr-09 19:15N 32°48' W 029°41'519.1
2018-Apr-09 19:00N 32°48' W 029°47'919.0
2018-Apr-09 18:30N 32°48' W 029°58'2419.4
2018-Apr-09 17:15N 32°49' W 030°27'519.6
2018-Apr-09 17:00N 32°49' W 030°33'  
Track history (hours):
 
Tides and Currents Weather Stations Pressure Air Temp Water Temp Dewpoint Dewpoint Depression Visibility Wind Speed Wind Dir Waves Ship Positions

Crown Princess

Last reported at 2018-Apr-19 09:58 UTC. Time now 2018-Apr-19 10:26 UTC.
Position N 43°33' E 010°18'.

Type: Passenger vessel. MMSI: 310500000.

Date/timePositionNaut miles runAvg speedWind from/ knotsBaromVisibWave heightAir tempDewpointWater temp
2018-Apr-19 09:58N 43°33' E 010°18'0 0.0
2018-Apr-19 09:28N 43°33' E 010°18'0 0.0
2018-Apr-19 08:58N 43°33' E 010°18'0 0.0
2018-Apr-19 08:28N 43°33' E 010°18'0 0.0
2018-Apr-19 07:58N 43°33' E 010°18'0 0.0
2018-Apr-19 07:28N 43°33' E 010°18'0 0.0
2018-Apr-19 06:58N 43°33' E 010°18'0 0.0
2018-Apr-19 06:28N 43°33' E 010°18'0 0.0
2018-Apr-19 05:58N 43°33' E 010°18'0 0.0
2018-Apr-19 05:28N 43°33' E 010°18'0 0.0
2018-Apr-19 05:00N 43°33' E 010°18'2 3.4
2018-Apr-19 04:30N 43°32' E 010°16'4 8.1
2018-Apr-19 04:00N 43°29' E 010°12'1121.4
2018-Apr-19 03:30N 43°22' E 010°02'1121.3
2018-Apr-19 03:00N 43°17' E 009°48'1122.1
2018-Apr-19 02:30N 43°15' E 009°33'1121.8
2018-Apr-19 02:00N 43°14' E 009°18'1122.1
2018-Apr-19 01:30N 43°11' E 009°04'1121.9
2018-Apr-19 01:00N 43°08' E 008°49'1121.8
2018-Apr-19 00:30N 43°05' E 008°35'1521.2
2018-Apr-18 23:49N 43°01' E 008°15'821.3
2018-Apr-18 23:27N 42°59' E 008°05'1821.7
2018-Apr-18 22:38N 42°52' E 007°43'321.8
2018-Apr-18 22:29N 42°51' E 007°39'1121.9
2018-Apr-18 21:59N 42°46' E 007°25'7 7.0
2018-Apr-18 21:00N 42°42' E 007°18'9221.6 040 / 151026.010.8 17.511.615.1
2018-Apr-18 16:43N 43°06' E 005°16'519.7
2018-Apr-18 16:28N 43°10' E 005°12'816.8
2018-Apr-18 16:00N 43°17' E 005°11'7 1.5
2018-Apr-18 11:21N 43°21' E 005°20'0 0.0
2018-Apr-18 11:00N 43°21' E 005°20'0 0.0
2018-Apr-18 10:30N 43°21' E 005°20'0 0.0
2018-Apr-18 09:34N 43°21' E 005°20'0 0.0
2018-Apr-18 09:22N 43°21' E 005°20'0 0.0
2018-Apr-18 08:36N 43°21' E 005°20'0 0.0
2018-Apr-18 08:16N 43°21' E 005°20'0 0.0
2018-Apr-18 07:06N 43°21' E 005°20'0 0.0
2018-Apr-18 07:00N 43°21' E 005°20'0 0.0
2018-Apr-18 06:30N 43°21' E 005°20'0 0.0
2018-Apr-18 06:00N 43°21' E 005°20'1 2.2
2018-Apr-18 05:29N 43°21' E 005°18'511.1
2018-Apr-18 05:00N 43°18' E 005°13'1019.5
2018-Apr-18 04:30N 43°09' E 005°06'1020.5
2018-Apr-18 04:00N 43°02' E 004°57'1020.3
2018-Apr-18 03:30N 42°54' E 004°48'1219.9
2018-Apr-18 02:53N 42°45' E 004°37'11415.6
2018-Apr-17 19:33N 41°29' E 002°42'120.6
2018-Apr-17 19:30N 41°28' E 002°41'1019.3
2018-Apr-17 19:00N 41°22' E 002°30'1318.6
2018-Apr-17 18:17N 41°16' E 002°15'413.1
2018-Apr-17 17:59N 41°18' E 002°10'3 0.9
2018-Apr-17 14:21N 41°21' E 002°10'0 0.0
2018-Apr-17 12:21N 41°21' E 002°10'0 0.0
2018-Apr-17 11:57N 41°21' E 002°10'0 0.0
2018-Apr-17 11:27N 41°21' E 002°10'0 0.0
2018-Apr-17 10:57N 41°21' E 002°10'0 0.0
2018-Apr-17 10:27N 41°21' E 002°10'0 0.0
2018-Apr-17 09:57N 41°21' E 002°10'0 0.0
2018-Apr-17 09:27N 41°21' E 002°10'0 0.0
2018-Apr-17 08:57N 41°21' E 002°10'0 0.0
2018-Apr-17 08:27N 41°21' E 002°10'0 0.0
2018-Apr-17 07:57N 41°21' E 002°10'0 0.0
2018-Apr-17 07:27N 41°21' E 002°10'0 0.0
2018-Apr-17 06:57N 41°21' E 002°10'0 0.0
2018-Apr-17 06:27N 41°21' E 002°10'0 0.0
2018-Apr-17 05:57N 41°21' E 002°10'0 0.0
2018-Apr-17 05:27N 41°21' E 002°10'0 0.0
2018-Apr-17 04:57N 41°21' E 002°10'0 0.0
2018-Apr-17 04:27N 41°21' E 002°10'0 0.0
2018-Apr-17 03:57N 41°21' E 002°10'0 0.0
2018-Apr-17 03:27N 41°21' E 002°10'0 0.0
2018-Apr-17 02:57N 41°21' E 002°10'0 0.0
2018-Apr-17 02:27N 41°21' E 002°10'0 0.0
2018-Apr-17 01:57N 41°21' E 002°10'0 0.0
2018-Apr-17 01:27N 41°21' E 002°10'0 0.0
2018-Apr-17 00:57N 41°21' E 002°10'0 0.0
2018-Apr-17 00:27N 41°21' E 002°10'0 0.0
2018-Apr-16 23:57N 41°21' E 002°10'0 0.0
2018-Apr-16 23:27N 41°21' E 002°10'0 0.0
2018-Apr-16 22:57N 41°21' E 002°10'0 0.0
2018-Apr-16 22:27N 41°21' E 002°10'0 0.0
2018-Apr-16 21:57N 41°21' E 002°10'0 0.0
2018-Apr-16 21:27N 41°21' E 002°10'0 0.0
2018-Apr-16 20:57N 41°21' E 002°10'0 0.0
2018-Apr-16 20:27N 41°21' E 002°10'0 0.0
2018-Apr-16 19:57N 41°21' E 002°10'0 0.0
2018-Apr-16 19:27N 41°21' E 002°10'0 0.0
2018-Apr-16 18:57N 41°21' E 002°10'0 0.0
2018-Apr-16 18:27N 41°21' E 002°10'0 0.0
2018-Apr-16 17:57N 41°21' E 002°10'0 0.0
2018-Apr-16 17:27N 41°21' E 002°10'0 0.0
2018-Apr-16 16:57N 41°21' E 002°10'0 0.0
2018-Apr-16 16:27N 41°21' E 002°10'0 0.0
2018-Apr-16 15:57N 41°21' E 002°10'0 0.0
2018-Apr-16 15:27N 41°21' E 002°10'0 0.0
2018-Apr-16 14:57N 41°21' E 002°10'0 0.0
2018-Apr-16 14:27N 41°21' E 002°10'0 0.0
2018-Apr-16 13:57N 41°21' E 002°10'0 0.0
2018-Apr-16 13:27N 41°21' E 002°10'0 0.0
2018-Apr-16 12:57N 41°21' E 002°10'0 0.0
2018-Apr-16 12:27N 41°21' E 002°10'0 0.0
2018-Apr-16 11:57N 41°21' E 002°10'0 0.0
2018-Apr-16 11:27N 41°21' E 002°10'0 0.0
2018-Apr-16 10:57N 41°21' E 002°10'0 0.0
2018-Apr-16 10:27N 41°21' E 002°10'0 0.0
2018-Apr-16 09:57N 41°21' E 002°10'0 0.0
2018-Apr-16 09:27N 41°21' E 002°10'0 0.0
2018-Apr-16 08:57N 41°21' E 002°10'0 0.0
2018-Apr-16 08:27N 41°21' E 002°10'0 0.0
2018-Apr-16 07:57N 41°21' E 002°10'0 0.0
2018-Apr-16 07:27N 41°21' E 002°10'0 0.1
2018-Apr-16 07:01N 41°21' E 002°10'2 3.3
2018-Apr-16 06:30N 41°20' E 002°10'4 8.5
2018-Apr-16 06:00N 41°16' E 002°12'713.6
2018-Apr-16 05:30N 41°09' E 002°13'712.9
2018-Apr-16 05:00N 41°02' E 002°12'713.4
2018-Apr-16 04:29N 40°55' E 002°10'813.6
2018-Apr-16 03:54N 40°48' E 002°08'913.5
2018-Apr-16 03:14N 40°39' E 002°06'7111.9
2018-Apr-15 21:18N 39°29' E 002°16'517.7
2018-Apr-15 21:01N 39°25' E 002°21'815.4
2018-Apr-15 20:30N 39°23' E 002°30'611.7
2018-Apr-15 20:01N 39°27' E 002°35'713.2
2018-Apr-15 19:30N 39°33' E 002°39'1 1.0
2018-Apr-15 19:00N 39°33' E 002°38'0 0.0
2018-Apr-15 18:30N 39°33' E 002°38'0 0.0
2018-Apr-15 18:00N 39°33' E 002°38'0 0.0
2018-Apr-15 17:30N 39°33' E 002°38'0 0.0
2018-Apr-15 17:00N 39°33' E 002°38'0 0.0
2018-Apr-15 16:30N 39°33' E 002°38'0 0.0
2018-Apr-15 16:00N 39°33' E 002°38'0 0.0
2018-Apr-15 15:30N 39°33' E 002°38'0 0.0
2018-Apr-15 15:00N 39°33' E 002°38'0 0.0
2018-Apr-15 14:30N 39°33' E 002°38'0 0.0
2018-Apr-15 14:00N 39°33' E 002°38'0 0.0
2018-Apr-15 13:30N 39°33' E 002°38'0 0.0
2018-Apr-15 13:00N 39°33' E 002°38'0 0.0
2018-Apr-15 12:30N 39°33' E 002°38'0 0.0
2018-Apr-15 12:00N 39°33' E 002°38'0 0.0
2018-Apr-15 11:30N 39°33' E 002°38'0 0.0
2018-Apr-15 11:00N 39°33' E 002°38'0 0.0
2018-Apr-15 10:30N 39°33' E 002°38'0 0.0
2018-Apr-15 10:00N 39°33' E 002°38'0 0.0
2018-Apr-15 09:29N 39°33' E 002°38'0 0.0
2018-Apr-15 09:00N 39°33' E 002°38'0 0.0
2018-Apr-15 08:29N 39°33' E 002°38'0 0.0
2018-Apr-15 08:00N 39°33' E 002°38'0 0.0
2018-Apr-15 07:30N 39°33' E 002°38'0 0.0
2018-Apr-15 07:00N 39°33' E 002°38'0 0.0
2018-Apr-15 06:30N 39°33' E 002°38'0 0.0
2018-Apr-15 06:00N 39°33' E 002°38'0 0.2
2018-Apr-15 05:30N 39°33' E 002°38'3 5.3
2018-Apr-15 05:00N 39°31' E 002°38'612.4
2018-Apr-15 04:30N 39°26' E 002°33'816.1
2018-Apr-15 04:00N 39°23' E 002°24'816.9
2018-Apr-15 03:30N 39°21' E 002°13'5217.2
2018-Apr-15 00:30N 39°05' E 001°09'8617.3
2018-Apr-14 19:33N 38°03' W 000°05'117.8
2018-Apr-14 19:30N 38°02' W 000°06'917.5
2018-Apr-14 19:00N 37°55' W 000°12'816.7
2018-Apr-14 18:30N 37°48' W 000°18'817.0
2018-Apr-14 18:00N 37°41' W 000°24'917.7
2018-Apr-14 17:30N 37°34' W 000°30'817.3
2018-Apr-14 17:00N 37°30' W 000°40'917.8
2018-Apr-14 16:30N 37°31' W 000°51'714.2
2018-Apr-14 16:00N 37°34' W 000°60'2 0.6
2018-Apr-14 13:03N 37°36' W 000°59'0 0.0
2018-Apr-14 12:51N 37°36' W 000°59'0 0.0
2018-Apr-14 12:09N 37°36' W 000°59'0 0.0
2018-Apr-14 10:33N 37°36' W 000°59'0 0.0
2018-Apr-14 10:03N 37°36' W 000°59'0 0.0
2018-Apr-14 09:57N 37°36' W 000°59'0 0.0
2018-Apr-14 09:27N 37°36' W 000°59'0 0.0
2018-Apr-14 08:09N 37°36' W 000°59'0 0.0
2018-Apr-14 07:39N 37°36' W 000°59'0 0.0
2018-Apr-14 05:49N 37°36' W 000°59'1 3.5
2018-Apr-14 05:30N 37°35' W 000°59'5 9.8
2018-Apr-14 04:59N 37°30' W 001°01'1119.1
2018-Apr-14 04:25N 37°21' W 001°08'20417.5
2018-Apr-13 16:46N 36°05' W 005°05'519.7
2018-Apr-13 16:30N 36°05' W 005°12'917.7
2018-Apr-13 16:00N 36°06' W 005°22'3 5.8
2018-Apr-13 15:30N 36°09' W 005°22'0 0.0
2018-Apr-13 14:58N 36°09' W 005°22'0 0.0
2018-Apr-13 14:19N 36°09' W 005°22'0 0.0
2018-Apr-13 13:55N 36°09' W 005°22'0 0.0
2018-Apr-13 13:28N 36°09' W 005°22'0 0.0
2018-Apr-13 12:58N 36°09' W 005°22'0 0.0
2018-Apr-13 12:28N 36°09' W 005°22'0 0.0
2018-Apr-13 11:58N 36°09' W 005°22'0 0.0
2018-Apr-13 11:10N 36°09' W 005°22'0 0.0
2018-Apr-13 10:58N 36°09' W 005°22'0 0.0
2018-Apr-13 10:22N 36°09' W 005°22'0 0.0
2018-Apr-13 09:58N 36°09' W 005°22'0 0.0
2018-Apr-13 09:28N 36°09' W 005°22'0 0.0
2018-Apr-13 08:16N 36°09' W 005°22'0 0.0
2018-Apr-13 07:58N 36°09' W 005°22'0 0.0
2018-Apr-13 07:28N 36°09' W 005°22'0 0.0
2018-Apr-13 06:58N 36°09' W 005°22'0 0.0
2018-Apr-13 06:28N 36°09' W 005°22'0 0.0
2018-Apr-13 05:34N 36°09' W 005°22'0 0.0
2018-Apr-13 05:29N 36°09' W 005°22'0 0.0
2018-Apr-13 04:58N 36°09' W 005°22'0 0.6
2018-Apr-13 04:30N 36°09' W 005°22'3 6.2
2018-Apr-13 04:01N 36°06' W 005°21'4 8.4
2018-Apr-13 03:30N 36°03' W 005°18'815.9
2018-Apr-13 03:00N 35°58' W 005°26'9519.0
2018-Apr-12 22:00N 35°30' W 007°18'22618.8 260 / 251008.210.8 14.5 9.116.6
2018-Apr-12 10:00N 34°12' W 011°36'39711.0 230 / 261011.710.8 19.013.317.3
2018-Apr-10 22:00N 32°36' W 019°18'20718.8 340 / 461024.210.8 19.013.319.3
2018-Apr-10 11:00N 32°42' W 023°24'27820.3 350 / 321029.510.8 18.013.919.7
2018-Apr-09 21:18N 32°47' W 028°54'4019.3
2018-Apr-09 19:15N 32°48' W 029°41'519.1
2018-Apr-09 19:00N 32°48' W 029°47'919.0
2018-Apr-09 18:30N 32°48' W 029°58'2419.4
2018-Apr-09 17:15N 32°49' W 030°27'519.6
2018-Apr-09 17:00N 32°49' W 030°33'  

Dump ship's entire track history